sensor_id;sensor_type;location;lat;lon;timestamp;P1;durP1;ratioP1;P2;durP2;ratioP2
76284;SDS011;71676;50.998;7.098;2023-11-21T00:02:24;9.07;;;4.60;;
76284;SDS011;71676;50.998;7.098;2023-11-21T00:04:53;10.57;;;4.53;;
76284;SDS011;71676;50.998;7.098;2023-11-21T00:07:20;11.27;;;4.50;;
76284;SDS011;71676;50.998;7.098;2023-11-21T00:09:47;10.05;;;4.45;;
76284;SDS011;71676;50.998;7.098;2023-11-21T00:12:14;13.27;;;5.30;;
76284;SDS011;71676;50.998;7.098;2023-11-21T00:14:40;8.93;;;4.93;;
76284;SDS011;71676;50.998;7.098;2023-11-21T00:17:07;11.07;;;4.50;;
76284;SDS011;71676;50.998;7.098;2023-11-21T00:19:34;11.07;;;5.38;;
76284;SDS011;71676;50.998;7.098;2023-11-21T00:25:04;10.07;;;4.80;;
76284;SDS011;71676;50.998;7.098;2023-11-21T00:30:28;11.05;;;4.97;;
76284;SDS011;71676;50.998;7.098;2023-11-21T00:33:12;9.48;;;4.68;;
76284;SDS011;71676;50.998;7.098;2023-11-21T00:36:00;10.65;;;4.68;;
76284;SDS011;71676;50.998;7.098;2023-11-21T00:38:51;10.27;;;5.03;;
76284;SDS011;71676;50.998;7.098;2023-11-21T00:45:03;12.77;;;5.60;;
76284;SDS011;71676;50.998;7.098;2023-11-21T00:47:46;11.50;;;5.78;;
76284;SDS011;71676;50.998;7.098;2023-11-21T00:50:29;10.15;;;4.75;;
76284;SDS011;71676;50.998;7.098;2023-11-21T00:53:14;10.35;;;4.35;;
76284;SDS011;71676;50.998;7.098;2023-11-21T00:56:30;8.68;;;4.50;;
76284;SDS011;71676;50.998;7.098;2023-11-21T00:59:11;9.57;;;4.80;;
76284;SDS011;71676;50.998;7.098;2023-11-21T01:05:20;9.55;;;4.50;;
76284;SDS011;71676;50.998;7.098;2023-11-21T01:09:55;12.25;;;4.55;;
76284;SDS011;71676;50.998;7.098;2023-11-21T01:11:36;10.70;;;4.07;;
76284;SDS011;71676;50.998;7.098;2023-11-21T01:14:09;11.52;;;4.35;;
76284;SDS011;71676;50.998;7.098;2023-11-21T01:16:56;10.32;;;4.00;;
76284;SDS011;71676;50.998;7.098;2023-11-21T01:19:30;9.73;;;4.85;;
76284;SDS011;71676;50.998;7.098;2023-11-21T01:22:17;10.23;;;4.63;;
76284;SDS011;71676;50.998;7.098;2023-11-21T01:28:04;10.90;;;4.68;;
76284;SDS011;71676;50.998;7.098;2023-11-21T01:30:44;10.20;;;4.35;;
76284;SDS011;71676;50.998;7.098;2023-11-21T01:39:54;11.82;;;4.15;;
76284;SDS011;71676;50.998;7.098;2023-11-21T01:42:37;12.32;;;5.03;;
76284;SDS011;71676;50.998;7.098;2023-11-21T01:45:19;10.07;;;4.68;;
76284;SDS011;71676;50.998;7.098;2023-11-21T01:48:17;8.50;;;3.97;;
76284;SDS011;71676;50.998;7.098;2023-11-21T01:50:55;8.60;;;4.20;;
76284;SDS011;71676;50.998;7.098;2023-11-21T01:54:08;12.55;;;4.93;;
76284;SDS011;71676;50.998;7.098;2023-11-21T01:56:43;9.68;;;4.55;;
76284;SDS011;71676;50.998;7.098;2023-11-21T01:59:49;8.55;;;4.28;;
76284;SDS011;71676;50.998;7.098;2023-11-21T02:02:47;9.73;;;4.43;;
76284;SDS011;71676;50.998;7.098;2023-11-21T02:05:36;11.75;;;4.47;;
76284;SDS011;71676;50.998;7.098;2023-11-21T02:08:09;9.80;;;3.97;;
76284;SDS011;71676;50.998;7.098;2023-11-21T02:10:54;8.60;;;4.60;;
76284;SDS011;71676;50.998;7.098;2023-11-21T02:13:35;11.65;;;4.70;;
76284;SDS011;71676;50.998;7.098;2023-11-21T02:20:05;11.48;;;4.43;;
76284;SDS011;71676;50.998;7.098;2023-11-21T02:22:43;10.77;;;4.63;;
76284;SDS011;71676;50.998;7.098;2023-11-21T02:26:02;9.07;;;4.28;;
76284;SDS011;71676;50.998;7.098;2023-11-21T02:28:57;8.43;;;4.43;;
76284;SDS011;71676;50.998;7.098;2023-11-21T02:31:47;8.30;;;4.22;;
76284;SDS011;71676;50.998;7.098;2023-11-21T02:34:23;9.00;;;4.47;;
76284;SDS011;71676;50.998;7.098;2023-11-21T02:43:43;7.93;;;3.92;;
76284;SDS011;71676;50.998;7.098;2023-11-21T03:02:22;11.38;;;4.43;;
76284;SDS011;71676;50.998;7.098;2023-11-21T03:05:45;9.68;;;4.70;;
76284;SDS011;71676;50.998;7.098;2023-11-21T03:09:03;9.35;;;3.70;;
76284;SDS011;71676;50.998;7.098;2023-11-21T03:11:39;10.45;;;4.53;;
76284;SDS011;71676;50.998;7.098;2023-11-21T03:17:58;12.85;;;4.53;;
76284;SDS011;71676;50.998;7.098;2023-11-21T03:20:33;9.80;;;4.60;;
76284;SDS011;71676;50.998;7.098;2023-11-21T03:30:26;8.77;;;4.43;;
76284;SDS011;71676;50.998;7.098;2023-11-21T04:10:26;9.63;;;4.32;;
76284;SDS011;71676;50.998;7.098;2023-11-21T04:13:16;12.65;;;4.72;;
76284;SDS011;71676;50.998;7.098;2023-11-21T04:26:30;11.32;;;4.88;;
76284;SDS011;71676;50.998;7.098;2023-11-21T04:36:11;10.80;;;5.40;;
76284;SDS011;71676;50.998;7.098;2023-11-21T04:38:56;11.30;;;5.20;;
76284;SDS011;71676;50.998;7.098;2023-11-21T04:42:00;11.18;;;5.25;;
76284;SDS011;71676;50.998;7.098;2023-11-21T04:44:57;12.45;;;5.38;;
76284;SDS011;71676;50.998;7.098;2023-11-21T04:47:39;13.60;;;5.75;;
76284;SDS011;71676;50.998;7.098;2023-11-21T04:50:46;10.27;;;5.38;;
76284;SDS011;71676;50.998;7.098;2023-11-21T04:54:13;12.70;;;6.30;;
76284;SDS011;71676;50.998;7.098;2023-11-21T05:00:38;12.13;;;5.70;;
76284;SDS011;71676;50.998;7.098;2023-11-21T05:06:51;12.63;;;6.28;;
76284;SDS011;71676;50.998;7.098;2023-11-21T05:12:55;13.05;;;6.07;;
76284;SDS011;71676;50.998;7.098;2023-11-21T05:15:28;14.60;;;5.95;;
76284;SDS011;71676;50.998;7.098;2023-11-21T05:18:18;12.35;;;6.22;;
76284;SDS011;71676;50.998;7.098;2023-11-21T05:20:56;10.70;;;5.25;;
76284;SDS011;71676;50.998;7.098;2023-11-21T05:23:50;12.05;;;6.07;;
76284;SDS011;71676;50.998;7.098;2023-11-21T05:26:23;13.10;;;5.68;;
76284;SDS011;71676;50.998;7.098;2023-11-21T05:29:01;15.05;;;5.70;;
76284;SDS011;71676;50.998;7.098;2023-11-21T05:31:45;13.43;;;6.47;;
76284;SDS011;71676;50.998;7.098;2023-11-21T05:47:24;12.13;;;5.53;;
76284;SDS011;71676;50.998;7.098;2023-11-21T05:51:35;14.52;;;5.65;;
76284;SDS011;71676;50.998;7.098;2023-11-21T06:00:44;12.30;;;5.45;;
76284;SDS011;71676;50.998;7.098;2023-11-21T06:03:37;15.75;;;6.97;;
76284;SDS011;71676;50.998;7.098;2023-11-21T06:06:12;15.57;;;6.40;;
76284;SDS011;71676;50.998;7.098;2023-11-21T06:11:47;13.32;;;5.90;;
76284;SDS011;71676;50.998;7.098;2023-11-21T06:14:37;13.77;;;7.20;;
76284;SDS011;71676;50.998;7.098;2023-11-21T06:17:45;13.82;;;6.35;;
76284;SDS011;71676;50.998;7.098;2023-11-21T06:20:32;12.32;;;5.97;;
76284;SDS011;71676;50.998;7.098;2023-11-21T06:25:57;12.82;;;6.15;;
76284;SDS011;71676;50.998;7.098;2023-11-21T06:31:45;14.27;;;6.75;;
76284;SDS011;71676;50.998;7.098;2023-11-21T06:34:26;15.10;;;7.25;;
76284;SDS011;71676;50.998;7.098;2023-11-21T06:37:29;15.30;;;7.55;;
76284;SDS011;71676;50.998;7.098;2023-11-21T06:43:36;15.43;;;7.60;;
76284;SDS011;71676;50.998;7.098;2023-11-21T06:49:40;18.27;;;7.28;;
76284;SDS011;71676;50.998;7.098;2023-11-21T06:52:14;16.90;;;8.07;;
76284;SDS011;71676;50.998;7.098;2023-11-21T06:58:22;20.50;;;8.13;;
76284;SDS011;71676;50.998;7.098;2023-11-21T07:21:27;16.58;;;8.68;;
76284;SDS011;71676;50.998;7.098;2023-11-21T07:24:57;18.95;;;9.68;;
76284;SDS011;71676;50.998;7.098;2023-11-21T07:27:25;18.60;;;9.05;;
76284;SDS011;71676;50.998;7.098;2023-11-21T07:30:11;18.75;;;8.95;;
76284;SDS011;71676;50.998;7.098;2023-11-21T08:00:57;20.90;;;8.80;;
76284;SDS011;71676;50.998;7.098;2023-11-21T08:03:24;22.17;;;9.27;;
76284;SDS011;71676;50.998;7.098;2023-11-21T08:05:51;22.95;;;9.57;;
76284;SDS011;71676;50.998;7.098;2023-11-21T08:08:18;27.48;;;10.57;;
76284;SDS011;71676;50.998;7.098;2023-11-21T08:10:44;26.05;;;10.45;;
76284;SDS011;71676;50.998;7.098;2023-11-21T08:13:21;29.75;;;11.95;;
76284;SDS011;71676;50.998;7.098;2023-11-21T08:15:48;30.08;;;11.60;;
76284;SDS011;71676;50.998;7.098;2023-11-21T08:18:16;33.50;;;12.38;;
76284;SDS011;71676;50.998;7.098;2023-11-21T08:20:42;31.13;;;11.38;;
76284;SDS011;71676;50.998;7.098;2023-11-21T08:23:13;32.75;;;11.63;;
76284;SDS011;71676;50.998;7.098;2023-11-21T08:25:41;36.22;;;13.10;;
76284;SDS011;71676;50.998;7.098;2023-11-21T08:28:08;41.55;;;13.55;;
76284;SDS011;71676;50.998;7.098;2023-11-21T08:30:35;36.20;;;11.73;;
76284;SDS011;71676;50.998;7.098;2023-11-21T08:33:02;46.33;;;14.88;;
76284;SDS011;71676;50.998;7.098;2023-11-21T08:35:30;30.05;;;12.02;;
76284;SDS011;71676;50.998;7.098;2023-11-21T08:37:57;40.63;;;14.07;;
76284;SDS011;71676;50.998;7.098;2023-11-21T08:40:24;30.95;;;12.27;;
76284;SDS011;71676;50.998;7.098;2023-11-21T08:42:50;32.72;;;12.13;;
76284;SDS011;71676;50.998;7.098;2023-11-21T08:45:17;41.22;;;13.10;;
76284;SDS011;71676;50.998;7.098;2023-11-21T08:47:44;38.65;;;13.23;;
76284;SDS011;71676;50.998;7.098;2023-11-21T08:50:11;38.30;;;12.32;;
76284;SDS011;71676;50.998;7.098;2023-11-21T08:52:41;33.25;;;13.20;;
76284;SDS011;71676;50.998;7.098;2023-11-21T08:55:12;36.90;;;12.75;;
76284;SDS011;71676;50.998;7.098;2023-11-21T08:57:39;37.55;;;13.27;;
76284;SDS011;71676;50.998;7.098;2023-11-21T09:00:07;32.20;;;12.48;;
76284;SDS011;71676;50.998;7.098;2023-11-21T09:02:38;38.45;;;13.10;;
76284;SDS011;71676;50.998;7.098;2023-11-21T09:05:07;36.45;;;13.60;;
76284;SDS011;71676;50.998;7.098;2023-11-21T09:07:34;29.67;;;13.13;;
76284;SDS011;71676;50.998;7.098;2023-11-21T09:10:03;35.28;;;11.23;;
76284;SDS011;71676;50.998;7.098;2023-11-21T09:12:32;41.35;;;14.82;;
76284;SDS011;71676;50.998;7.098;2023-11-21T09:15:00;38.78;;;14.30;;
76284;SDS011;71676;50.998;7.098;2023-11-21T09:17:26;40.30;;;14.45;;
76284;SDS011;71676;50.998;7.098;2023-11-21T09:19:53;36.97;;;14.90;;
76284;SDS011;71676;50.998;7.098;2023-11-21T09:22:19;43.55;;;16.55;;
76284;SDS011;71676;50.998;7.098;2023-11-21T09:24:46;36.17;;;14.82;;
76284;SDS011;71676;50.998;7.098;2023-11-21T09:27:18;39.47;;;14.27;;
76284;SDS011;71676;50.998;7.098;2023-11-21T09:29:46;41.95;;;15.82;;
76284;SDS011;71676;50.998;7.098;2023-11-21T09:32:14;38.75;;;15.18;;
76284;SDS011;71676;50.998;7.098;2023-11-21T09:34:43;38.05;;;14.52;;
76284;SDS011;71676;50.998;7.098;2023-11-21T09:37:10;46.65;;;15.25;;
76284;SDS011;71676;50.998;7.098;2023-11-21T09:39:37;38.42;;;15.23;;
76284;SDS011;71676;50.998;7.098;2023-11-21T09:42:04;39.70;;;14.70;;
76284;SDS011;71676;50.998;7.098;2023-11-21T09:44:40;37.13;;;16.42;;
76284;SDS011;71676;50.998;7.098;2023-11-21T09:47:14;35.15;;;14.52;;
76284;SDS011;71676;50.998;7.098;2023-11-21T09:49:42;40.67;;;15.15;;
76284;SDS011;71676;50.998;7.098;2023-11-21T09:52:15;43.38;;;16.13;;
76284;SDS011;71676;50.998;7.098;2023-11-21T09:54:50;37.97;;;14.73;;
76284;SDS011;71676;50.998;7.098;2023-11-21T09:57:18;49.03;;;15.63;;
76284;SDS011;71676;50.998;7.098;2023-11-21T09:59:47;39.63;;;15.43;;
76284;SDS011;71676;50.998;7.098;2023-11-21T10:02:17;44.92;;;16.20;;
76284;SDS011;71676;50.998;7.098;2023-11-21T10:04:46;40.10;;;15.65;;
76284;SDS011;71676;50.998;7.098;2023-11-21T10:07:13;35.72;;;15.43;;
76284;SDS011;71676;50.998;7.098;2023-11-21T10:09:43;36.72;;;13.20;;
76284;SDS011;71676;50.998;7.098;2023-11-21T10:12:11;44.40;;;16.25;;
76284;SDS011;71676;50.998;7.098;2023-11-21T10:14:41;38.28;;;15.30;;
76284;SDS011;71676;50.998;7.098;2023-11-21T10:17:10;41.47;;;14.60;;
76284;SDS011;71676;50.998;7.098;2023-11-21T10:22:08;37.08;;;13.98;;
76284;SDS011;71676;50.998;7.098;2023-11-21T10:24:35;34.55;;;14.02;;
76284;SDS011;71676;50.998;7.098;2023-11-21T10:27:03;36.28;;;14.30;;
76284;SDS011;71676;50.998;7.098;2023-11-21T10:29:30;32.90;;;14.40;;
76284;SDS011;71676;50.998;7.098;2023-11-21T10:32:01;35.83;;;15.13;;
76284;SDS011;71676;50.998;7.098;2023-11-21T10:34:29;40.17;;;15.63;;
76284;SDS011;71676;50.998;7.098;2023-11-21T10:36:56;39.90;;;15.38;;
76284;SDS011;71676;50.998;7.098;2023-11-21T10:39:23;40.22;;;15.07;;
76284;SDS011;71676;50.998;7.098;2023-11-21T10:41:54;39.75;;;15.40;;
76284;SDS011;71676;50.998;7.098;2023-11-21T10:44:21;44.08;;;15.15;;
76284;SDS011;71676;50.998;7.098;2023-11-21T10:46:49;36.80;;;15.65;;
76284;SDS011;71676;50.998;7.098;2023-11-21T10:49:17;38.90;;;15.82;;
76284;SDS011;71676;50.998;7.098;2023-11-21T10:51:45;35.17;;;14.40;;
76284;SDS011;71676;50.998;7.098;2023-11-21T10:54:16;36.83;;;15.45;;
76284;SDS011;71676;50.998;7.098;2023-11-21T10:56:43;35.80;;;15.02;;
76284;SDS011;71676;50.998;7.098;2023-11-21T10:59:12;36.30;;;15.80;;
76284;SDS011;71676;50.998;7.098;2023-11-21T11:01:40;40.38;;;16.08;;
76284;SDS011;71676;50.998;7.098;2023-11-21T11:04:09;37.95;;;15.23;;
76284;SDS011;71676;50.998;7.098;2023-11-21T11:06:40;43.70;;;15.23;;
76284;SDS011;71676;50.998;7.098;2023-11-21T11:09:09;35.25;;;15.35;;
76284;SDS011;71676;50.998;7.098;2023-11-21T11:11:38;36.78;;;15.85;;
76284;SDS011;71676;50.998;7.098;2023-11-21T11:14:06;37.13;;;15.95;;
76284;SDS011;71676;50.998;7.098;2023-11-21T11:16:33;35.33;;;15.20;;
76284;SDS011;71676;50.998;7.098;2023-11-21T11:19:02;39.90;;;16.15;;
76284;SDS011;71676;50.998;7.098;2023-11-21T11:21:31;36.80;;;16.40;;
76284;SDS011;71676;50.998;7.098;2023-11-21T11:24:13;33.25;;;14.85;;
76284;SDS011;71676;50.998;7.098;2023-11-21T11:27:01;36.67;;;14.73;;
76284;SDS011;71676;50.998;7.098;2023-11-21T11:29:40;36.95;;;15.63;;
76284;SDS011;71676;50.998;7.098;2023-11-21T11:32:16;35.88;;;15.02;;
76284;SDS011;71676;50.998;7.098;2023-11-21T11:34:53;40.78;;;15.55;;
76284;SDS011;71676;50.998;7.098;2023-11-21T11:37:27;32.55;;;14.60;;
76284;SDS011;71676;50.998;7.098;2023-11-21T11:39:56;37.17;;;15.77;;
76284;SDS011;71676;50.998;7.098;2023-11-21T11:42:24;41.85;;;15.82;;
76284;SDS011;71676;50.998;7.098;2023-11-21T11:44:51;37.28;;;15.18;;
76284;SDS011;71676;50.998;7.098;2023-11-21T11:47:20;35.55;;;15.23;;
76284;SDS011;71676;50.998;7.098;2023-11-21T11:49:55;37.72;;;15.45;;
76284;SDS011;71676;50.998;7.098;2023-11-21T11:52:39;41.03;;;15.15;;
76284;SDS011;71676;50.998;7.098;2023-11-21T11:55:08;39.08;;;14.80;;
76284;SDS011;71676;50.998;7.098;2023-11-21T11:57:36;43.08;;;15.82;;
76284;SDS011;71676;50.998;7.098;2023-11-21T12:00:07;39.65;;;15.10;;
76284;SDS011;71676;50.998;7.098;2023-11-21T12:02:41;41.78;;;15.18;;
76284;SDS011;71676;50.998;7.098;2023-11-21T12:05:08;42.17;;;15.45;;
76284;SDS011;71676;50.998;7.098;2023-11-21T12:07:48;41.78;;;15.55;;
76284;SDS011;71676;50.998;7.098;2023-11-21T12:10:20;41.22;;;16.55;;
76284;SDS011;71676;50.998;7.098;2023-11-21T12:12:50;40.80;;;17.27;;
76284;SDS011;71676;50.998;7.098;2023-11-21T12:15:18;35.03;;;14.02;;
76284;SDS011;71676;50.998;7.098;2023-11-21T12:17:46;38.17;;;15.23;;
76284;SDS011;71676;50.998;7.098;2023-11-21T12:20:14;40.70;;;15.65;;
76284;SDS011;71676;50.998;7.098;2023-11-21T12:22:43;41.20;;;14.13;;
76284;SDS011;71676;50.998;7.098;2023-11-21T12:25:12;39.15;;;15.25;;
76284;SDS011;71676;50.998;7.098;2023-11-21T12:27:43;37.05;;;14.93;;
76284;SDS011;71676;50.998;7.098;2023-11-21T12:30:11;37.70;;;14.23;;
76284;SDS011;71676;50.998;7.098;2023-11-21T12:32:40;35.85;;;15.60;;
76284;SDS011;71676;50.998;7.098;2023-11-21T12:35:08;40.97;;;15.20;;
76284;SDS011;71676;50.998;7.098;2023-11-21T12:37:36;37.85;;;15.55;;
76284;SDS011;71676;50.998;7.098;2023-11-21T12:40:04;40.65;;;14.88;;
76284;SDS011;71676;50.998;7.098;2023-11-21T12:42:33;37.50;;;15.07;;
76284;SDS011;71676;50.998;7.098;2023-11-21T12:45:09;38.10;;;15.35;;
76284;SDS011;71676;50.998;7.098;2023-11-21T12:47:45;40.60;;;15.70;;
76284;SDS011;71676;50.998;7.098;2023-11-21T12:50:12;37.53;;;16.00;;
76284;SDS011;71676;50.998;7.098;2023-11-21T12:52:41;38.90;;;15.93;;
76284;SDS011;71676;50.998;7.098;2023-11-21T12:55:13;40.13;;;17.05;;
76284;SDS011;71676;50.998;7.098;2023-11-21T12:57:42;39.05;;;14.90;;
76284;SDS011;71676;50.998;7.098;2023-11-21T13:00:12;36.25;;;14.98;;
76284;SDS011;71676;50.998;7.098;2023-11-21T13:02:51;31.20;;;13.48;;
76284;SDS011;71676;50.998;7.098;2023-11-21T13:05:25;37.88;;;14.68;;
76284;SDS011;71676;50.998;7.098;2023-11-21T13:07:55;35.78;;;13.60;;
76284;SDS011;71676;50.998;7.098;2023-11-21T13:10:23;40.08;;;13.25;;
76284;SDS011;71676;50.998;7.098;2023-11-21T13:12:54;35.90;;;14.48;;
76284;SDS011;71676;50.998;7.098;2023-11-21T13:15:24;32.22;;;13.30;;
76284;SDS011;71676;50.998;7.098;2023-11-21T13:17:51;32.83;;;13.18;;
76284;SDS011;71676;50.998;7.098;2023-11-21T13:20:18;32.83;;;12.80;;
76284;SDS011;71676;50.998;7.098;2023-11-21T13:22:48;36.63;;;13.18;;
76284;SDS011;71676;50.998;7.098;2023-11-21T13:25:18;31.02;;;12.23;;
76284;SDS011;71676;50.998;7.098;2023-11-21T13:27:47;29.98;;;12.88;;
76284;SDS011;71676;50.998;7.098;2023-11-21T13:30:15;32.15;;;12.85;;
76284;SDS011;71676;50.998;7.098;2023-11-21T13:32:44;28.23;;;11.80;;
76284;SDS011;71676;50.998;7.098;2023-11-21T13:35:11;33.22;;;12.57;;
76284;SDS011;71676;50.998;7.098;2023-11-21T13:37:46;30.52;;;12.27;;
76284;SDS011;71676;50.998;7.098;2023-11-21T13:40:16;32.80;;;12.27;;
76284;SDS011;71676;50.998;7.098;2023-11-21T13:42:47;27.55;;;11.73;;
76284;SDS011;71676;50.998;7.098;2023-11-21T13:45:18;29.60;;;11.77;;
76284;SDS011;71676;50.998;7.098;2023-11-21T13:47:48;28.55;;;11.25;;
76284;SDS011;71676;50.998;7.098;2023-11-21T13:50:17;30.00;;;10.98;;
76284;SDS011;71676;50.998;7.098;2023-11-21T13:52:47;26.15;;;10.45;;
76284;SDS011;71676;50.998;7.098;2023-11-21T13:55:14;32.47;;;11.75;;
76284;SDS011;71676;50.998;7.098;2023-11-21T13:57:40;28.92;;;11.23;;
76284;SDS011;71676;50.998;7.098;2023-11-21T14:00:10;27.58;;;10.73;;
76284;SDS011;71676;50.998;7.098;2023-11-21T14:02:59;25.95;;;10.50;;
76284;SDS011;71676;50.998;7.098;2023-11-21T14:05:26;26.50;;;10.77;;
76284;SDS011;71676;50.998;7.098;2023-11-21T14:07:55;29.95;;;11.90;;
76284;SDS011;71676;50.998;7.098;2023-11-21T14:10:27;28.67;;;10.27;;
76284;SDS011;71676;50.998;7.098;2023-11-21T14:13:02;31.02;;;11.05;;
76284;SDS011;71676;50.998;7.098;2023-11-21T14:15:29;32.88;;;11.57;;
76284;SDS011;71676;50.998;7.098;2023-11-21T14:18:00;28.38;;;11.52;;
76284;SDS011;71676;50.998;7.098;2023-11-21T14:20:30;32.40;;;11.18;;
76284;SDS011;71676;50.998;7.098;2023-11-21T14:22:58;28.67;;;12.05;;
76284;SDS011;71676;50.998;7.098;2023-11-21T14:25:25;34.33;;;11.52;;
76284;SDS011;71676;50.998;7.098;2023-11-21T14:27:52;35.58;;;12.02;;
76284;SDS011;71676;50.998;7.098;2023-11-21T14:30:18;32.50;;;12.25;;
76284;SDS011;71676;50.998;7.098;2023-11-21T14:32:47;30.70;;;11.65;;
76284;SDS011;71676;50.998;7.098;2023-11-21T14:35:16;36.17;;;13.80;;
76284;SDS011;71676;50.998;7.098;2023-11-21T14:37:43;35.58;;;13.20;;
76284;SDS011;71676;50.998;7.098;2023-11-21T14:40:11;36.70;;;13.13;;
76284;SDS011;71676;50.998;7.098;2023-11-21T14:42:40;34.67;;;12.18;;
76284;SDS011;71676;50.998;7.098;2023-11-21T14:45:08;36.28;;;13.35;;
76284;SDS011;71676;50.998;7.098;2023-11-21T14:47:38;38.88;;;13.13;;
76284;SDS011;71676;50.998;7.098;2023-11-21T14:50:09;33.65;;;13.57;;
76284;SDS011;71676;50.998;7.098;2023-11-21T14:53:05;39.38;;;14.00;;
76284;SDS011;71676;50.998;7.098;2023-11-21T14:55:31;34.17;;;13.27;;
76284;SDS011;71676;50.998;7.098;2023-11-21T14:58:08;38.35;;;13.18;;
76284;SDS011;71676;50.998;7.098;2023-11-21T15:00:38;36.85;;;13.68;;
76284;SDS011;71676;50.998;7.098;2023-11-21T15:03:09;35.90;;;13.30;;
76284;SDS011;71676;50.998;7.098;2023-11-21T15:05:48;37.35;;;14.35;;
76284;SDS011;71676;50.998;7.098;2023-11-21T15:08:15;36.05;;;12.95;;
76284;SDS011;71676;50.998;7.098;2023-11-21T15:10:47;33.80;;;12.55;;
76284;SDS011;71676;50.998;7.098;2023-11-21T15:13:18;35.35;;;13.88;;
76284;SDS011;71676;50.998;7.098;2023-11-21T15:15:45;35.67;;;14.18;;
76284;SDS011;71676;50.998;7.098;2023-11-21T15:18:12;37.67;;;14.52;;
76284;SDS011;71676;50.998;7.098;2023-11-21T15:20:39;35.58;;;15.07;;
76284;SDS011;71676;50.998;7.098;2023-11-21T15:23:06;33.53;;;13.20;;
76284;SDS011;71676;50.998;7.098;2023-11-21T15:25:34;31.52;;;13.07;;
76284;SDS011;71676;50.998;7.098;2023-11-21T15:28:01;34.03;;;13.90;;
76284;SDS011;71676;50.998;7.098;2023-11-21T15:30:30;31.33;;;12.85;;
76284;SDS011;71676;50.998;7.098;2023-11-21T15:32:57;35.42;;;12.88;;
76284;SDS011;71676;50.998;7.098;2023-11-21T15:35:23;34.38;;;12.90;;
76284;SDS011;71676;50.998;7.098;2023-11-21T15:37:52;38.00;;;13.45;;
76284;SDS011;71676;50.998;7.098;2023-11-21T15:40:19;32.83;;;12.32;;
76284;SDS011;71676;50.998;7.098;2023-11-21T15:42:47;33.08;;;12.63;;
76284;SDS011;71676;50.998;7.098;2023-11-21T15:45:20;33.55;;;12.65;;
76284;SDS011;71676;50.998;7.098;2023-11-21T15:47:49;31.63;;;13.85;;
76284;SDS011;71676;50.998;7.098;2023-11-21T15:50:16;25.50;;;11.05;;
76284;SDS011;71676;50.998;7.098;2023-11-21T15:52:43;24.33;;;10.20;;
76284;SDS011;71676;50.998;7.098;2023-11-21T15:55:13;23.85;;;9.75;;
76284;SDS011;71676;50.998;7.098;2023-11-21T15:57:40;25.90;;;11.43;;
76284;SDS011;71676;50.998;7.098;2023-11-21T16:00:09;22.70;;;9.60;;
76284;SDS011;71676;50.998;7.098;2023-11-21T16:02:41;21.02;;;8.43;;
76284;SDS011;71676;50.998;7.098;2023-11-21T16:05:08;20.75;;;8.80;;
76284;SDS011;71676;50.998;7.098;2023-11-21T16:07:38;20.25;;;9.25;;
76284;SDS011;71676;50.998;7.098;2023-11-21T16:10:06;20.33;;;8.50;;
76284;SDS011;71676;50.998;7.098;2023-11-21T16:12:35;21.30;;;9.30;;
76284;SDS011;71676;50.998;7.098;2023-11-21T16:15:02;19.98;;;9.02;;
76284;SDS011;71676;50.998;7.098;2023-11-21T16:17:34;18.08;;;9.30;;
76284;SDS011;71676;50.998;7.098;2023-11-21T16:20:02;17.63;;;8.75;;
76284;SDS011;71676;50.998;7.098;2023-11-21T16:22:33;26.25;;;12.18;;
76284;SDS011;71676;50.998;7.098;2023-11-21T16:25:00;24.83;;;11.02;;
76284;SDS011;71676;50.998;7.098;2023-11-21T16:27:29;20.92;;;9.45;;
76284;SDS011;71676;50.998;7.098;2023-11-21T16:29:56;20.90;;;9.80;;
76284;SDS011;71676;50.998;7.098;2023-11-21T16:32:23;18.73;;;8.98;;
76284;SDS011;71676;50.998;7.098;2023-11-21T16:34:51;20.77;;;9.85;;
76284;SDS011;71676;50.998;7.098;2023-11-21T16:37:18;18.15;;;8.52;;
76284;SDS011;71676;50.998;7.098;2023-11-21T16:39:43;18.40;;;8.40;;
76284;SDS011;71676;50.998;7.098;2023-11-21T16:42:10;21.88;;;9.00;;
76284;SDS011;71676;50.998;7.098;2023-11-21T16:44:37;18.10;;;8.70;;
76284;SDS011;71676;50.998;7.098;2023-11-21T16:47:03;20.35;;;9.70;;
76284;SDS011;71676;50.998;7.098;2023-11-21T16:49:30;18.98;;;8.68;;
76284;SDS011;71676;50.998;7.098;2023-11-21T16:51:59;20.73;;;9.60;;
76284;SDS011;71676;50.998;7.098;2023-11-21T16:54:29;19.77;;;8.88;;
76284;SDS011;71676;50.998;7.098;2023-11-21T16:56:55;20.40;;;9.07;;
76284;SDS011;71676;50.998;7.098;2023-11-21T16:59:22;19.67;;;9.05;;
76284;SDS011;71676;50.998;7.098;2023-11-21T17:01:49;17.85;;;8.52;;
76284;SDS011;71676;50.998;7.098;2023-11-21T17:04:16;19.77;;;9.02;;
76284;SDS011;71676;50.998;7.098;2023-11-21T17:06:43;19.55;;;8.70;;
76284;SDS011;71676;50.998;7.098;2023-11-21T17:09:12;19.50;;;8.65;;
76284;SDS011;71676;50.998;7.098;2023-11-21T17:11:43;19.00;;;9.05;;
76284;SDS011;71676;50.998;7.098;2023-11-21T17:14:13;20.75;;;9.30;;
76284;SDS011;71676;50.998;7.098;2023-11-21T17:16:39;19.15;;;8.73;;
76284;SDS011;71676;50.998;7.098;2023-11-21T17:19:07;17.38;;;7.78;;
76284;SDS011;71676;50.998;7.098;2023-11-21T17:21:34;17.70;;;8.40;;
76284;SDS011;71676;50.998;7.098;2023-11-21T17:24:01;16.02;;;8.05;;
76284;SDS011;71676;50.998;7.098;2023-11-21T17:26:29;17.20;;;7.72;;
76284;SDS011;71676;50.998;7.098;2023-11-21T17:28:56;15.48;;;7.13;;
76284;SDS011;71676;50.998;7.098;2023-11-21T17:31:23;17.20;;;6.82;;
76284;SDS011;71676;50.998;7.098;2023-11-21T17:33:50;13.68;;;6.55;;
76284;SDS011;71676;50.998;7.098;2023-11-21T17:36:18;14.80;;;6.80;;
76284;SDS011;71676;50.998;7.098;2023-11-21T17:38:45;12.75;;;5.97;;
76284;SDS011;71676;50.998;7.098;2023-11-21T17:41:11;12.30;;;5.70;;
76284;SDS011;71676;50.998;7.098;2023-11-21T17:43:40;11.02;;;5.18;;
76284;SDS011;71676;50.998;7.098;2023-11-21T17:46:07;10.23;;;5.45;;
76284;SDS011;71676;50.998;7.098;2023-11-21T17:48:34;11.95;;;6.13;;
76284;SDS011;71676;50.998;7.098;2023-11-21T17:51:01;11.07;;;5.15;;
76284;SDS011;71676;50.998;7.098;2023-11-21T17:53:29;10.07;;;5.53;;
76284;SDS011;71676;50.998;7.098;2023-11-21T17:55:56;9.65;;;5.30;;
76284;SDS011;71676;50.998;7.098;2023-11-21T17:58:22;10.38;;;5.50;;
76284;SDS011;71676;50.998;7.098;2023-11-21T18:00:50;12.27;;;5.63;;
76284;SDS011;71676;50.998;7.098;2023-11-21T18:03:18;13.13;;;6.25;;
76284;SDS011;71676;50.998;7.098;2023-11-21T18:05:44;12.43;;;6.70;;
76284;SDS011;71676;50.998;7.098;2023-11-21T18:08:11;12.57;;;5.60;;
76284;SDS011;71676;50.998;7.098;2023-11-21T18:10:38;11.07;;;5.57;;
76284;SDS011;71676;50.998;7.098;2023-11-21T18:13:05;13.07;;;6.85;;
76284;SDS011;71676;50.998;7.098;2023-11-21T18:15:32;10.65;;;5.03;;
76284;SDS011;71676;50.998;7.098;2023-11-21T18:18:00;9.52;;;4.60;;
76284;SDS011;71676;50.998;7.098;2023-11-21T18:20:27;10.38;;;5.07;;
76284;SDS011;71676;50.998;7.098;2023-11-21T18:22:54;9.70;;;5.03;;
76284;SDS011;71676;50.998;7.098;2023-11-21T18:25:21;9.27;;;4.45;;
76284;SDS011;71676;50.998;7.098;2023-11-21T18:27:48;10.65;;;4.75;;
76284;SDS011;71676;50.998;7.098;2023-11-21T18:30:14;8.68;;;4.40;;
76284;SDS011;71676;50.998;7.098;2023-11-21T18:32:41;8.50;;;3.67;;
76284;SDS011;71676;50.998;7.098;2023-11-21T18:35:09;8.45;;;3.90;;
76284;SDS011;71676;50.998;7.098;2023-11-21T18:37:36;7.75;;;3.80;;
76284;SDS011;71676;50.998;7.098;2023-11-21T18:40:03;6.85;;;3.53;;
76284;SDS011;71676;50.998;7.098;2023-11-21T18:42:30;7.63;;;3.35;;